sensor_id;sensor_type;location;lat;lon;timestamp;P1;durP1;ratioP1;P2;durP2;ratioP2
66633;SDS011;53546;52.184;5.596;2023-02-28T00:00:21;3.30;;;2.03;;
66633;SDS011;53546;52.184;5.596;2023-02-28T00:02:47;2.63;;;1.80;;
66633;SDS011;53546;52.184;5.596;2023-02-28T00:05:13;3.03;;;1.95;;
66633;SDS011;53546;52.184;5.596;2023-02-28T00:07:41;3.05;;;1.83;;
66633;SDS011;53546;52.184;5.596;2023-02-28T00:10:08;2.15;;;1.85;;
66633;SDS011;53546;52.184;5.596;2023-02-28T00:12:34;2.30;;;1.60;;
66633;SDS011;53546;52.184;5.596;2023-02-28T00:15:01;2.15;;;1.95;;
66633;SDS011;53546;52.184;5.596;2023-02-28T00:17:27;1.67;;;1.40;;
66633;SDS011;53546;52.184;5.596;2023-02-28T00:19:52;1.58;;;1.42;;
66633;SDS011;53546;52.184;5.596;2023-02-28T00:22:18;4.22;;;1.60;;
66633;SDS011;53546;52.184;5.596;2023-02-28T00:24:46;2.63;;;1.70;;
66633;SDS011;53546;52.184;5.596;2023-02-28T00:27:12;2.08;;;1.60;;
66633;SDS011;53546;52.184;5.596;2023-02-28T00:29:38;2.53;;;1.73;;
66633;SDS011;53546;52.184;5.596;2023-02-28T00:32:04;2.55;;;1.60;;
66633;SDS011;53546;52.184;5.596;2023-02-28T00:34:30;3.22;;;1.67;;
66633;SDS011;53546;52.184;5.596;2023-02-28T00:36:56;2.20;;;1.52;;
66633;SDS011;53546;52.184;5.596;2023-02-28T00:39:21;2.83;;;1.50;;
66633;SDS011;53546;52.184;5.596;2023-02-28T00:41:46;4.20;;;1.50;;
66633;SDS011;53546;52.184;5.596;2023-02-28T00:44:12;1.63;;;1.45;;
66633;SDS011;53546;52.184;5.596;2023-02-28T00:46:37;8.43;;;1.48;;
66633;SDS011;53546;52.184;5.596;2023-02-28T00:49:03;2.33;;;1.42;;
66633;SDS011;53546;52.184;5.596;2023-02-28T00:51:28;2.08;;;1.30;;
66633;SDS011;53546;52.184;5.596;2023-02-28T00:53:53;1.88;;;1.40;;
66633;SDS011;53546;52.184;5.596;2023-02-28T00:56:19;2.72;;;1.48;;
66633;SDS011;53546;52.184;5.596;2023-02-28T00:58:45;4.60;;;1.50;;
66633;SDS011;53546;52.184;5.596;2023-02-28T01:01:10;1.27;;;1.10;;
66633;SDS011;53546;52.184;5.596;2023-02-28T01:03:36;1.25;;;1.05;;
66633;SDS011;53546;52.184;5.596;2023-02-28T01:06:01;2.58;;;1.10;;
66633;SDS011;53546;52.184;5.596;2023-02-28T01:08:27;1.23;;;1.10;;
66633;SDS011;53546;52.184;5.596;2023-02-28T01:10:52;1.40;;;1.30;;
66633;SDS011;53546;52.184;5.596;2023-02-28T01:13:18;1.67;;;1.13;;
66633;SDS011;53546;52.184;5.596;2023-02-28T01:15:45;2.35;;;1.30;;
66633;SDS011;53546;52.184;5.596;2023-02-28T01:18:15;1.52;;;1.17;;
66633;SDS011;53546;52.184;5.596;2023-02-28T01:20:41;2.30;;;1.42;;
66633;SDS011;53546;52.184;5.596;2023-02-28T01:23:06;2.05;;;1.30;;
66633;SDS011;53546;52.184;5.596;2023-02-28T01:25:33;1.42;;;1.20;;
66633;SDS011;53546;52.184;5.596;2023-02-28T01:27:59;1.65;;;1.20;;
66633;SDS011;53546;52.184;5.596;2023-02-28T01:30:25;1.10;;;1.00;;
66633;SDS011;53546;52.184;5.596;2023-02-28T01:32:50;1.30;;;1.20;;
66633;SDS011;53546;52.184;5.596;2023-02-28T01:35:18;4.78;;;1.38;;
66633;SDS011;53546;52.184;5.596;2023-02-28T01:37:44;1.60;;;1.30;;
66633;SDS011;53546;52.184;5.596;2023-02-28T01:40:09;5.32;;;1.30;;
66633;SDS011;53546;52.184;5.596;2023-02-28T01:42:35;1.27;;;1.10;;
66633;SDS011;53546;52.184;5.596;2023-02-28T01:47:43;1.60;;;1.10;;
66633;SDS011;53546;52.184;5.596;2023-02-28T01:50:16;1.40;;;1.08;;
66633;SDS011;53546;52.184;5.596;2023-02-28T01:52:45;1.63;;;1.00;;
66633;SDS011;53546;52.184;5.596;2023-02-28T01:55:11;2.83;;;1.05;;
66633;SDS011;53546;52.184;5.596;2023-02-28T01:57:45;1.40;;;1.10;;
66633;SDS011;53546;52.184;5.596;2023-02-28T02:00:14;2.13;;;1.38;;
66633;SDS011;53546;52.184;5.596;2023-02-28T02:02:42;1.58;;;0.93;;
66633;SDS011;53546;52.184;5.596;2023-02-28T02:05:10;1.02;;;0.98;;
66633;SDS011;53546;52.184;5.596;2023-02-28T02:07:38;1.60;;;1.20;;
66633;SDS011;53546;52.184;5.596;2023-02-28T02:10:13;1.23;;;1.00;;
66633;SDS011;53546;52.184;5.596;2023-02-28T02:15:28;1.55;;;1.02;;
66633;SDS011;53546;52.184;5.596;2023-02-28T02:18:09;1.27;;;1.10;;
66633;SDS011;53546;52.184;5.596;2023-02-28T02:20:58;1.70;;;1.20;;
66633;SDS011;53546;52.184;5.596;2023-02-28T02:35:16;2.65;;;1.20;;
66633;SDS011;53546;52.184;5.596;2023-02-28T02:40:11;1.67;;;1.02;;
66633;SDS011;53546;52.184;5.596;2023-02-28T02:42:52;2.23;;;1.20;;
66633;SDS011;53546;52.184;5.596;2023-02-28T02:48:00;0.95;;;0.90;;
66633;SDS011;53546;52.184;5.596;2023-02-28T02:50:29;1.50;;;1.10;;
66633;SDS011;53546;52.184;5.596;2023-02-28T02:52:58;2.47;;;1.23;;
66633;SDS011;53546;52.184;5.596;2023-02-28T02:55:25;1.63;;;1.30;;
66633;SDS011;53546;52.184;5.596;2023-02-28T02:57:55;1.83;;;1.00;;
66633;SDS011;53546;52.184;5.596;2023-02-28T03:00:30;2.43;;;1.00;;
66633;SDS011;53546;52.184;5.596;2023-02-28T03:02:58;1.58;;;1.02;;
66633;SDS011;53546;52.184;5.596;2023-02-28T03:08:16;2.67;;;1.10;;
66633;SDS011;53546;52.184;5.596;2023-02-28T03:10:43;1.95;;;1.00;;
66633;SDS011;53546;52.184;5.596;2023-02-28T03:21:43;2.13;;;1.50;;
66633;SDS011;53546;52.184;5.596;2023-02-28T03:24:18;0.90;;;0.90;;
66633;SDS011;53546;52.184;5.596;2023-02-28T03:26:50;1.17;;;1.08;;
66633;SDS011;53546;52.184;5.596;2023-02-28T03:31:48;0.93;;;0.90;;
66633;SDS011;53546;52.184;5.596;2023-02-28T03:34:19;1.73;;;1.30;;
66633;SDS011;53546;52.184;5.596;2023-02-28T03:36:51;1.30;;;1.20;;
66633;SDS011;53546;52.184;5.596;2023-02-28T03:39:23;1.30;;;1.20;;
66633;SDS011;53546;52.184;5.596;2023-02-28T03:41:57;1.70;;;1.35;;
66633;SDS011;53546;52.184;5.596;2023-02-28T03:44:26;2.83;;;1.48;;
66633;SDS011;53546;52.184;5.596;2023-02-28T03:46:57;1.83;;;1.30;;
66633;SDS011;53546;52.184;5.596;2023-02-28T03:49:27;1.10;;;1.00;;
66633;SDS011;53546;52.184;5.596;2023-02-28T03:51:56;2.40;;;1.17;;
66633;SDS011;53546;52.184;5.596;2023-02-28T03:54:26;1.17;;;1.00;;
66633;SDS011;53546;52.184;5.596;2023-02-28T03:56:56;1.30;;;1.20;;
66633;SDS011;53546;52.184;5.596;2023-02-28T03:59:35;2.05;;;1.30;;
66633;SDS011;53546;52.184;5.596;2023-02-28T04:02:03;3.85;;;1.45;;
66633;SDS011;53546;52.184;5.596;2023-02-28T04:04:28;2.17;;;1.40;;
66633;SDS011;53546;52.184;5.596;2023-02-28T04:07:01;1.27;;;1.02;;
66633;SDS011;53546;52.184;5.596;2023-02-28T04:09:31;1.27;;;1.17;;
66633;SDS011;53546;52.184;5.596;2023-02-28T04:11:58;1.20;;;1.10;;
66633;SDS011;53546;52.184;5.596;2023-02-28T04:14:24;1.75;;;1.30;;
66633;SDS011;53546;52.184;5.596;2023-02-28T04:16:49;1.70;;;1.35;;
66633;SDS011;53546;52.184;5.596;2023-02-28T04:19:16;1.55;;;1.20;;
66633;SDS011;53546;52.184;5.596;2023-02-28T04:21:43;1.52;;;1.17;;
66633;SDS011;53546;52.184;5.596;2023-02-28T04:24:10;1.40;;;1.30;;
66633;SDS011;53546;52.184;5.596;2023-02-28T04:26:47;1.63;;;1.17;;
66633;SDS011;53546;52.184;5.596;2023-02-28T04:29:18;3.13;;;1.48;;
66633;SDS011;53546;52.184;5.596;2023-02-28T04:31:48;1.63;;;1.20;;
66633;SDS011;53546;52.184;5.596;2023-02-28T04:34:14;2.88;;;1.33;;
66633;SDS011;53546;52.184;5.596;2023-02-28T04:36:39;2.40;;;1.30;;
66633;SDS011;53546;52.184;5.596;2023-02-28T04:39:05;1.23;;;1.10;;
66633;SDS011;53546;52.184;5.596;2023-02-28T04:41:30;1.50;;;1.10;;
66633;SDS011;53546;52.184;5.596;2023-02-28T04:43:56;1.25;;;1.10;;
66633;SDS011;53546;52.184;5.596;2023-02-28T04:46:21;2.15;;;1.40;;
66633;SDS011;53546;52.184;5.596;2023-02-28T04:48:47;2.78;;;0.98;;
66633;SDS011;53546;52.184;5.596;2023-02-28T04:51:14;1.58;;;1.10;;
66633;SDS011;53546;52.184;5.596;2023-02-28T04:53:40;1.85;;;1.30;;
66633;SDS011;53546;52.184;5.596;2023-02-28T04:56:07;1.65;;;1.10;;
66633;SDS011;53546;52.184;5.596;2023-02-28T04:58:35;1.08;;;1.08;;
66633;SDS011;53546;52.184;5.596;2023-02-28T05:01:01;1.33;;;1.20;;
66633;SDS011;53546;52.184;5.596;2023-02-28T05:03:28;1.48;;;1.10;;
66633;SDS011;53546;52.184;5.596;2023-02-28T05:05:53;1.77;;;1.10;;
66633;SDS011;53546;52.184;5.596;2023-02-28T05:08:19;1.13;;;0.93;;
66633;SDS011;53546;52.184;5.596;2023-02-28T05:10:44;1.23;;;1.10;;
66633;SDS011;53546;52.184;5.596;2023-02-28T05:13:12;1.00;;;0.90;;
66633;SDS011;53546;52.184;5.596;2023-02-28T05:15:38;0.85;;;0.85;;
66633;SDS011;53546;52.184;5.596;2023-02-28T05:18:03;1.20;;;1.00;;
66633;SDS011;53546;52.184;5.596;2023-02-28T05:20:29;2.70;;;1.00;;
66633;SDS011;53546;52.184;5.596;2023-02-28T05:22:54;1.98;;;0.90;;
66633;SDS011;53546;52.184;5.596;2023-02-28T05:25:20;1.25;;;0.90;;
66633;SDS011;53546;52.184;5.596;2023-02-28T05:27:47;1.70;;;0.90;;
66633;SDS011;53546;52.184;5.596;2023-02-28T05:30:13;2.47;;;1.13;;
66633;SDS011;53546;52.184;5.596;2023-02-28T05:32:39;2.60;;;1.00;;
66633;SDS011;53546;52.184;5.596;2023-02-28T05:35:07;2.15;;;1.40;;
66633;SDS011;53546;52.184;5.596;2023-02-28T05:37:34;2.38;;;1.58;;
66633;SDS011;53546;52.184;5.596;2023-02-28T05:39:59;4.03;;;1.35;;
66633;SDS011;53546;52.184;5.596;2023-02-28T05:42:25;8.18;;;2.08;;
66633;SDS011;53546;52.184;5.596;2023-02-28T05:44:50;5.45;;;2.10;;
66633;SDS011;53546;52.184;5.596;2023-02-28T05:47:16;4.57;;;1.95;;
66633;SDS011;53546;52.184;5.596;2023-02-28T05:49:42;9.48;;;2.63;;
66633;SDS011;53546;52.184;5.596;2023-02-28T05:52:07;9.23;;;2.50;;
66633;SDS011;53546;52.184;5.596;2023-02-28T05:54:33;6.03;;;2.35;;
66633;SDS011;53546;52.184;5.596;2023-02-28T05:56:58;47.85;;;7.93;;
66633;SDS011;53546;52.184;5.596;2023-02-28T05:59:24;27.33;;;5.22;;
66633;SDS011;53546;52.184;5.596;2023-02-28T06:01:49;21.38;;;4.32;;
66633;SDS011;53546;52.184;5.596;2023-02-28T06:04:16;16.63;;;4.55;;
66633;SDS011;53546;52.184;5.596;2023-02-28T06:06:49;12.50;;;3.70;;
66633;SDS011;53546;52.184;5.596;2023-02-28T06:09:15;10.68;;;3.17;;
66633;SDS011;53546;52.184;5.596;2023-02-28T06:11:42;14.95;;;3.92;;
66633;SDS011;53546;52.184;5.596;2023-02-28T06:14:09;14.65;;;2.90;;
66633;SDS011;53546;52.184;5.596;2023-02-28T06:16:39;8.63;;;3.10;;
66633;SDS011;53546;52.184;5.596;2023-02-28T06:19:05;11.23;;;2.90;;
66633;SDS011;53546;52.184;5.596;2023-02-28T06:21:30;14.55;;;2.42;;
66633;SDS011;53546;52.184;5.596;2023-02-28T06:23:56;11.98;;;2.65;;
66633;SDS011;53546;52.184;5.596;2023-02-28T06:26:22;5.82;;;2.30;;
66633;SDS011;53546;52.184;5.596;2023-02-28T06:28:47;12.40;;;2.60;;
66633;SDS011;53546;52.184;5.596;2023-02-28T06:31:14;10.45;;;2.65;;
66633;SDS011;53546;52.184;5.596;2023-02-28T06:33:41;4.68;;;2.00;;
66633;SDS011;53546;52.184;5.596;2023-02-28T06:36:07;6.15;;;2.33;;
66633;SDS011;53546;52.184;5.596;2023-02-28T06:38:34;6.30;;;2.33;;
66633;SDS011;53546;52.184;5.596;2023-02-28T06:41:00;5.93;;;2.22;;
66633;SDS011;53546;52.184;5.596;2023-02-28T06:43:27;6.38;;;2.25;;
66633;SDS011;53546;52.184;5.596;2023-02-28T06:45:54;5.10;;;1.95;;
66633;SDS011;53546;52.184;5.596;2023-02-28T06:48:20;4.65;;;2.00;;
66633;SDS011;53546;52.184;5.596;2023-02-28T06:50:46;2.90;;;1.70;;
66633;SDS011;53546;52.184;5.596;2023-02-28T06:53:12;3.05;;;1.60;;
66633;SDS011;53546;52.184;5.596;2023-02-28T06:55:38;3.25;;;1.45;;
66633;SDS011;53546;52.184;5.596;2023-02-28T06:58:04;6.93;;;1.77;;
66633;SDS011;53546;52.184;5.596;2023-02-28T07:00:39;4.20;;;1.58;;
66633;SDS011;53546;52.184;5.596;2023-02-28T07:03:08;4.72;;;1.63;;
66633;SDS011;53546;52.184;5.596;2023-02-28T07:05:35;4.97;;;1.42;;
66633;SDS011;53546;52.184;5.596;2023-02-28T07:08:01;4.88;;;1.55;;
66633;SDS011;53546;52.184;5.596;2023-02-28T07:10:28;2.08;;;1.17;;
66633;SDS011;53546;52.184;5.596;2023-02-28T07:12:53;3.60;;;1.42;;
66633;SDS011;53546;52.184;5.596;2023-02-28T07:15:19;3.85;;;1.20;;
66633;SDS011;53546;52.184;5.596;2023-02-28T07:17:44;3.45;;;1.15;;
66633;SDS011;53546;52.184;5.596;2023-02-28T07:20:10;1.52;;;1.20;;
66633;SDS011;53546;52.184;5.596;2023-02-28T07:22:35;2.05;;;1.30;;
66633;SDS011;53546;52.184;5.596;2023-02-28T07:25:01;1.33;;;0.90;;
66633;SDS011;53546;52.184;5.596;2023-02-28T07:27:26;2.60;;;1.45;;
66633;SDS011;53546;52.184;5.596;2023-02-28T07:29:52;1.88;;;1.13;;
66633;SDS011;53546;52.184;5.596;2023-02-28T07:32:18;2.00;;;1.30;;
66633;SDS011;53546;52.184;5.596;2023-02-28T07:34:44;2.50;;;1.30;;
66633;SDS011;53546;52.184;5.596;2023-02-28T07:37:10;3.22;;;1.20;;
66633;SDS011;53546;52.184;5.596;2023-02-28T07:39:35;1.92;;;1.20;;
66633;SDS011;53546;52.184;5.596;2023-02-28T07:42:04;2.78;;;1.08;;
66633;SDS011;53546;52.184;5.596;2023-02-28T07:44:31;1.02;;;0.80;;
66633;SDS011;53546;52.184;5.596;2023-02-28T07:46:56;3.08;;;1.40;;
66633;SDS011;53546;52.184;5.596;2023-02-28T07:49:21;2.22;;;1.20;;
66633;SDS011;53546;52.184;5.596;2023-02-28T07:51:47;2.47;;;1.15;;
66633;SDS011;53546;52.184;5.596;2023-02-28T07:54:12;3.17;;;1.00;;
66633;SDS011;53546;52.184;5.596;2023-02-28T07:56:38;2.20;;;1.20;;
66633;SDS011;53546;52.184;5.596;2023-02-28T07:59:03;1.63;;;1.17;;
66633;SDS011;53546;52.184;5.596;2023-02-28T08:01:29;2.85;;;1.20;;
66633;SDS011;53546;52.184;5.596;2023-02-28T08:03:54;1.27;;;1.00;;
66633;SDS011;53546;52.184;5.596;2023-02-28T08:06:22;2.28;;;1.10;;
66633;SDS011;53546;52.184;5.596;2023-02-28T08:08:48;3.83;;;1.23;;
66633;SDS011;53546;52.184;5.596;2023-02-28T08:11:14;2.72;;;1.05;;
66633;SDS011;53546;52.184;5.596;2023-02-28T08:13:41;1.10;;;1.00;;
66633;SDS011;53546;52.184;5.596;2023-02-28T08:16:08;1.70;;;1.15;;
66633;SDS011;53546;52.184;5.596;2023-02-28T08:18:34;1.52;;;1.20;;
66633;SDS011;53546;52.184;5.596;2023-02-28T08:21:05;1.60;;;1.08;;
66633;SDS011;53546;52.184;5.596;2023-02-28T08:23:31;1.83;;;1.23;;
66633;SDS011;53546;52.184;5.596;2023-02-28T08:25:58;3.35;;;1.17;;
66633;SDS011;53546;52.184;5.596;2023-02-28T08:28:24;1.60;;;1.15;;
66633;SDS011;53546;52.184;5.596;2023-02-28T08:30:49;1.40;;;0.98;;
66633;SDS011;53546;52.184;5.596;2023-02-28T08:33:16;2.85;;;1.20;;
66633;SDS011;53546;52.184;5.596;2023-02-28T08:35:42;2.80;;;1.00;;
66633;SDS011;53546;52.184;5.596;2023-02-28T08:38:07;2.30;;;1.20;;
66633;SDS011;53546;52.184;5.596;2023-02-28T08:40:32;1.23;;;0.90;;
66633;SDS011;53546;52.184;5.596;2023-02-28T08:42:58;1.00;;;0.90;;
66633;SDS011;53546;52.184;5.596;2023-02-28T08:45:24;1.50;;;1.20;;
66633;SDS011;53546;52.184;5.596;2023-02-28T08:47:50;1.98;;;1.23;;
66633;SDS011;53546;52.184;5.596;2023-02-28T08:50:17;5.95;;;1.27;;
66633;SDS011;53546;52.184;5.596;2023-02-28T08:52:43;1.10;;;1.00;;
66633;SDS011;53546;52.184;5.596;2023-02-28T08:55:09;1.88;;;1.20;;
66633;SDS011;53546;52.184;5.596;2023-02-28T08:57:35;1.35;;;1.20;;
66633;SDS011;53546;52.184;5.596;2023-02-28T09:00:00;1.23;;;1.08;;
66633;SDS011;53546;52.184;5.596;2023-02-28T09:02:29;1.27;;;1.17;;
66633;SDS011;53546;52.184;5.596;2023-02-28T09:04:55;1.25;;;1.13;;
66633;SDS011;53546;52.184;5.596;2023-02-28T09:07:20;1.15;;;1.00;;
66633;SDS011;53546;52.184;5.596;2023-02-28T09:09:46;1.88;;;0.95;;
66633;SDS011;53546;52.184;5.596;2023-02-28T09:12:24;0.90;;;0.80;;
66633;SDS011;53546;52.184;5.596;2023-02-28T09:14:50;1.85;;;0.90;;
66633;SDS011;53546;52.184;5.596;2023-02-28T09:17:16;1.20;;;1.00;;
66633;SDS011;53546;52.184;5.596;2023-02-28T09:19:41;2.03;;;1.30;;
66633;SDS011;53546;52.184;5.596;2023-02-28T09:22:07;2.03;;;0.90;;
66633;SDS011;53546;52.184;5.596;2023-02-28T09:24:33;0.75;;;0.73;;
66633;SDS011;53546;52.184;5.596;2023-02-28T09:26:58;5.20;;;1.20;;
66633;SDS011;53546;52.184;5.596;2023-02-28T09:29:24;3.42;;;0.88;;
66633;SDS011;53546;52.184;5.596;2023-02-28T09:31:49;1.85;;;0.90;;
66633;SDS011;53546;52.184;5.596;2023-02-28T09:34:15;1.17;;;0.75;;
66633;SDS011;53546;52.184;5.596;2023-02-28T09:36:42;1.48;;;0.90;;
66633;SDS011;53546;52.184;5.596;2023-02-28T09:39:08;4.35;;;0.88;;
66633;SDS011;53546;52.184;5.596;2023-02-28T09:41:38;1.10;;;0.88;;
66633;SDS011;53546;52.184;5.596;2023-02-28T09:44:20;1.08;;;1.00;;
66633;SDS011;53546;52.184;5.596;2023-02-28T09:46:51;0.65;;;0.60;;
66633;SDS011;53546;52.184;5.596;2023-02-28T09:49:22;1.92;;;1.00;;
66633;SDS011;53546;52.184;5.596;2023-02-28T09:51:56;0.90;;;0.90;;
66633;SDS011;53546;52.184;5.596;2023-02-28T09:54:24;1.08;;;0.77;;
66633;SDS011;53546;52.184;5.596;2023-02-28T09:56:59;0.85;;;0.85;;
66633;SDS011;53546;52.184;5.596;2023-02-28T09:59:49;0.80;;;0.80;;
66633;SDS011;53546;52.184;5.596;2023-02-28T10:05:13;0.75;;;0.75;;
66633;SDS011;53546;52.184;5.596;2023-02-28T10:07:50;0.80;;;0.80;;
66633;SDS011;53546;52.184;5.596;2023-02-28T10:15:50;0.70;;;0.70;;
66633;SDS011;53546;52.184;5.596;2023-02-28T10:18:19;0.88;;;0.80;;
66633;SDS011;53546;52.184;5.596;2023-02-28T10:20:48;1.10;;;0.80;;
66633;SDS011;53546;52.184;5.596;2023-02-28T10:23:21;1.70;;;0.80;;
66633;SDS011;53546;52.184;5.596;2023-02-28T10:26:05;0.80;;;0.80;;
66633;SDS011;53546;52.184;5.596;2023-02-28T10:28:36;0.73;;;0.73;;
66633;SDS011;53546;52.184;5.596;2023-02-28T10:31:02;1.42;;;1.02;;
66633;SDS011;53546;52.184;5.596;2023-02-28T10:33:29;0.80;;;0.70;;
66633;SDS011;53546;52.184;5.596;2023-02-28T10:35:56;0.70;;;0.70;;
66633;SDS011;53546;52.184;5.596;2023-02-28T10:38:26;0.70;;;0.60;;
66633;SDS011;53546;52.184;5.596;2023-02-28T10:41:03;1.08;;;0.63;;
66633;SDS011;53546;52.184;5.596;2023-02-28T10:43:37;0.63;;;0.63;;
66633;SDS011;53546;52.184;5.596;2023-02-28T10:46:09;0.60;;;0.60;;
66633;SDS011;53546;52.184;5.596;2023-02-28T10:48:47;0.60;;;0.60;;
66633;SDS011;53546;52.184;5.596;2023-02-28T10:51:25;0.85;;;0.70;;
66633;SDS011;53546;52.184;5.596;2023-02-28T10:54:00;1.85;;;0.82;;
66633;SDS011;53546;52.184;5.596;2023-02-28T10:56:25;1.08;;;0.70;;
66633;SDS011;53546;52.184;5.596;2023-02-28T10:58:58;1.40;;;0.70;;
66633;SDS011;53546;52.184;5.596;2023-02-28T11:01:42;0.65;;;0.50;;
66633;SDS011;53546;52.184;5.596;2023-02-28T11:04:16;0.73;;;0.60;;
66633;SDS011;53546;52.184;5.596;2023-02-28T11:07:06;1.15;;;0.70;;
66633;SDS011;53546;52.184;5.596;2023-02-28T11:09:46;0.85;;;0.70;;
66633;SDS011;53546;52.184;5.596;2023-02-28T11:12:59;1.10;;;0.80;;
66633;SDS011;53546;52.184;5.596;2023-02-28T11:15:14;0.50;;;0.50;;
66633;SDS011;53546;52.184;5.596;2023-02-28T11:18:00;0.70;;;0.70;;
66633;SDS011;53546;52.184;5.596;2023-02-28T11:20:43;0.55;;;0.55;;
66633;SDS011;53546;52.184;5.596;2023-02-28T11:23:14;0.88;;;0.55;;
66633;SDS011;53546;52.184;5.596;2023-02-28T11:25:39;0.73;;;0.60;;
66633;SDS011;53546;52.184;5.596;2023-02-28T11:28:05;0.70;;;0.68;;
66633;SDS011;53546;52.184;5.596;2023-02-28T11:33:01;2.20;;;0.77;;
66633;SDS011;53546;52.184;5.596;2023-02-28T11:35:48;2.85;;;0.80;;
66633;SDS011;53546;52.184;5.596;2023-02-28T11:38:14;0.68;;;0.68;;
66633;SDS011;53546;52.184;5.596;2023-02-28T11:40:46;0.65;;;0.65;;
66633;SDS011;53546;52.184;5.596;2023-02-28T11:43:48;0.98;;;0.80;;
66633;SDS011;53546;52.184;5.596;2023-02-28T11:51:32;0.57;;;0.57;;
66633;SDS011;53546;52.184;5.596;2023-02-28T11:54:19;1.10;;;0.80;;
66633;SDS011;53546;52.184;5.596;2023-02-28T11:57:42;0.80;;;0.80;;
66633;SDS011;53546;52.184;5.596;2023-02-28T12:00:30;0.60;;;0.60;;
66633;SDS011;53546;52.184;5.596;2023-02-28T12:06:01;1.10;;;0.60;;
66633;SDS011;53546;52.184;5.596;2023-02-28T12:11:07;0.95;;;0.75;;
66633;SDS011;53546;52.184;5.596;2023-02-28T12:13:47;1.95;;;0.60;;
66633;SDS011;53546;52.184;5.596;2023-02-28T12:16:23;3.80;;;0.80;;
66633;SDS011;53546;52.184;5.596;2023-02-28T12:21:42;2.72;;;0.93;;
66633;SDS011;53546;52.184;5.596;2023-02-28T12:26:53;0.88;;;0.88;;
66633;SDS011;53546;52.184;5.596;2023-02-28T12:29:30;3.20;;;0.95;;
66633;SDS011;53546;52.184;5.596;2023-02-28T12:32:01;2.45;;;0.77;;
66633;SDS011;53546;52.184;5.596;2023-02-28T12:34:33;1.70;;;0.82;;
66633;SDS011;53546;52.184;5.596;2023-02-28T12:37:04;1.05;;;0.80;;
66633;SDS011;53546;52.184;5.596;2023-02-28T12:39:34;3.13;;;0.75;;
66633;SDS011;53546;52.184;5.596;2023-02-28T12:42:08;1.33;;;0.85;;
66633;SDS011;53546;52.184;5.596;2023-02-28T12:47:15;1.45;;;0.65;;
66633;SDS011;53546;52.184;5.596;2023-02-28T12:49:45;1.45;;;0.82;;
66633;SDS011;53546;52.184;5.596;2023-02-28T12:52:15;3.67;;;1.05;;
66633;SDS011;53546;52.184;5.596;2023-02-28T12:54:45;6.50;;;1.00;;
66633;SDS011;53546;52.184;5.596;2023-02-28T13:00:08;3.90;;;0.60;;
66633;SDS011;53546;52.184;5.596;2023-02-28T13:08:01;1.50;;;0.80;;
66633;SDS011;53546;52.184;5.596;2023-02-28T13:13:05;1.95;;;0.63;;
66633;SDS011;53546;52.184;5.596;2023-02-28T13:15:31;6.20;;;0.88;;
66633;SDS011;53546;52.184;5.596;2023-02-28T13:18:00;1.70;;;0.73;;
66633;SDS011;53546;52.184;5.596;2023-02-28T13:20:27;0.93;;;0.73;;
66633;SDS011;53546;52.184;5.596;2023-02-28T13:22:55;0.85;;;0.73;;
66633;SDS011;53546;52.184;5.596;2023-02-28T13:28:10;0.88;;;0.57;;
66633;SDS011;53546;52.184;5.596;2023-02-28T13:36:27;2.50;;;0.60;;
66633;SDS011;53546;52.184;5.596;2023-02-28T13:38:59;1.60;;;0.70;;
66633;SDS011;53546;52.184;5.596;2023-02-28T13:44:11;1.92;;;0.80;;
66633;SDS011;53546;52.184;5.596;2023-02-28T13:49:31;5.43;;;0.82;;
66633;SDS011;53546;52.184;5.596;2023-02-28T13:52:18;2.28;;;0.90;;
66633;SDS011;53546;52.184;5.596;2023-02-28T13:54:56;3.08;;;0.77;;
66633;SDS011;53546;52.184;5.596;2023-02-28T14:00:39;0.80;;;0.70;;
66633;SDS011;53546;52.184;5.596;2023-02-28T14:03:14;0.80;;;0.70;;
66633;SDS011;53546;52.184;5.596;2023-02-28T14:06:22;0.88;;;0.70;;
66633;SDS011;53546;52.184;5.596;2023-02-28T14:09:24;0.70;;;0.70;;
66633;SDS011;53546;52.184;5.596;2023-02-28T14:11:45;0.98;;;0.70;;
66633;SDS011;53546;52.184;5.596;2023-02-28T14:16:58;0.68;;;0.60;;
66633;SDS011;53546;52.184;5.596;2023-02-28T14:19:25;0.90;;;0.77;;
66633;SDS011;53546;52.184;5.596;2023-02-28T14:38:36;1.08;;;0.70;;
66633;SDS011;53546;52.184;5.596;2023-02-28T14:41:06;0.98;;;0.60;;
66633;SDS011;53546;52.184;5.596;2023-02-28T14:43:47;1.08;;;0.80;;
66633;SDS011;53546;52.184;5.596;2023-02-28T14:46:20;0.77;;;0.70;;
66633;SDS011;53546;52.184;5.596;2023-02-28T14:48:46;0.80;;;0.80;;
66633;SDS011;53546;52.184;5.596;2023-02-28T14:51:17;0.80;;;0.80;;
66633;SDS011;53546;52.184;5.596;2023-02-28T14:53:44;0.73;;;0.73;;
66633;SDS011;53546;52.184;5.596;2023-02-28T14:56:21;1.63;;;0.70;;
66633;SDS011;53546;52.184;5.596;2023-02-28T14:58:52;0.70;;;0.70;;
66633;SDS011;53546;52.184;5.596;2023-02-28T15:01:20;1.98;;;1.15;;
66633;SDS011;53546;52.184;5.596;2023-02-28T15:03:47;1.15;;;0.80;;
66633;SDS011;53546;52.184;5.596;2023-02-28T15:08:39;0.80;;;0.80;;
66633;SDS011;53546;52.184;5.596;2023-02-28T15:11:05;0.70;;;0.70;;
66633;SDS011;53546;52.184;5.596;2023-02-28T15:13:38;0.60;;;0.60;;
66633;SDS011;53546;52.184;5.596;2023-02-28T15:16:28;0.70;;;0.70;;
66633;SDS011;53546;52.184;5.596;2023-02-28T15:19:05;0.70;;;0.70;;
66633;SDS011;53546;52.184;5.596;2023-02-28T15:21:34;0.80;;;0.70;;
66633;SDS011;53546;52.184;5.596;2023-02-28T15:24:10;0.68;;;0.68;;
66633;SDS011;53546;52.184;5.596;2023-02-28T15:26:39;1.15;;;0.90;;
66633;SDS011;53546;52.184;5.596;2023-02-28T15:29:10;1.48;;;0.73;;
66633;SDS011;53546;52.184;5.596;2023-02-28T15:31:40;0.77;;;0.77;;
66633;SDS011;53546;52.184;5.596;2023-02-28T15:34:19;0.73;;;0.70;;
66633;SDS011;53546;52.184;5.596;2023-02-28T15:36:46;0.63;;;0.63;;
66633;SDS011;53546;52.184;5.596;2023-02-28T15:39:20;3.25;;;0.80;;
66633;SDS011;53546;52.184;5.596;2023-02-28T15:41:49;0.50;;;0.50;;
66633;SDS011;53546;52.184;5.596;2023-02-28T15:47:03;0.93;;;0.52;;
66633;SDS011;53546;52.184;5.596;2023-02-28T15:49:33;0.70;;;0.70;;
66633;SDS011;53546;52.184;5.596;2023-02-28T15:52:37;0.65;;;0.65;;
66633;SDS011;53546;52.184;5.596;2023-02-28T15:55:08;0.70;;;0.70;;
66633;SDS011;53546;52.184;5.596;2023-02-28T15:57:43;0.60;;;0.60;;
66633;SDS011;53546;52.184;5.596;2023-02-28T16:00:11;0.80;;;0.80;;
66633;SDS011;53546;52.184;5.596;2023-02-28T16:02:38;3.55;;;0.82;;
66633;SDS011;53546;52.184;5.596;2023-02-28T16:05:46;2.72;;;0.82;;
66633;SDS011;53546;52.184;5.596;2023-02-28T16:07:57;0.85;;;0.85;;
66633;SDS011;53546;52.184;5.596;2023-02-28T16:10:27;0.90;;;0.80;;
66633;SDS011;53546;52.184;5.596;2023-02-28T16:12:55;1.67;;;0.77;;
66633;SDS011;53546;52.184;5.596;2023-02-28T16:15:25;2.47;;;0.88;;
66633;SDS011;53546;52.184;5.596;2023-02-28T16:17:52;0.70;;;0.70;;
66633;SDS011;53546;52.184;5.596;2023-02-28T16:20:28;1.88;;;0.90;;
66633;SDS011;53546;52.184;5.596;2023-02-28T16:22:54;1.17;;;0.82;;
66633;SDS011;53546;52.184;5.596;2023-02-28T16:25:22;0.82;;;0.70;;
66633;SDS011;53546;52.184;5.596;2023-02-28T16:27:51;2.17;;;1.00;;
66633;SDS011;53546;52.184;5.596;2023-02-28T16:30:22;1.33;;;1.00;;
66633;SDS011;53546;52.184;5.596;2023-02-28T16:32:50;3.10;;;1.00;;
66633;SDS011;53546;52.184;5.596;2023-02-28T16:35:16;2.75;;;1.00;;
66633;SDS011;53546;52.184;5.596;2023-02-28T16:37:42;2.65;;;1.02;;
66633;SDS011;53546;52.184;5.596;2023-02-28T16:40:13;2.95;;;1.10;;
66633;SDS011;53546;52.184;5.596;2023-02-28T16:42:42;1.42;;;1.02;;
66633;SDS011;53546;52.184;5.596;2023-02-28T16:45:21;1.20;;;0.95;;
66633;SDS011;53546;52.184;5.596;2023-02-28T16:47:48;1.77;;;1.00;;
66633;SDS011;53546;52.184;5.596;2023-02-28T16:50:24;1.00;;;0.80;;
66633;SDS011;53546;52.184;5.596;2023-02-28T16:52:53;2.15;;;1.05;;
66633;SDS011;53546;52.184;5.596;2023-02-28T16:55:19;4.00;;;1.30;;
66633;SDS011;53546;52.184;5.596;2023-02-28T16:57:47;1.52;;;1.10;;
66633;SDS011;53546;52.184;5.596;2023-02-28T17:00:16;1.60;;;1.00;;